sensor_id;sensor_type;location;lat;lon;timestamp;P1;durP1;ratioP1;P2;durP2;ratioP2
36377;SDS011;22402;42.746;23.606;2023-05-20T00:00:03;18.53;;;9.30;;
36377;SDS011;22402;42.746;23.606;2023-05-20T00:02:29;18.17;;;11.27;;
36377;SDS011;22402;42.746;23.606;2023-05-20T00:04:55;13.90;;;9.97;;
36377;SDS011;22402;42.746;23.606;2023-05-20T00:07:21;15.43;;;9.50;;
36377;SDS011;22402;42.746;23.606;2023-05-20T00:09:47;16.30;;;9.73;;
36377;SDS011;22402;42.746;23.606;2023-05-20T00:12:12;13.70;;;8.17;;
36377;SDS011;22402;42.746;23.606;2023-05-20T00:14:37;13.30;;;9.50;;
36377;SDS011;22402;42.746;23.606;2023-05-20T00:17:03;14.70;;;9.50;;
36377;SDS011;22402;42.746;23.606;2023-05-20T00:19:28;13.90;;;8.77;;
36377;SDS011;22402;42.746;23.606;2023-05-20T00:21:54;11.13;;;8.80;;
36377;SDS011;22402;42.746;23.606;2023-05-20T00:24:21;11.83;;;8.57;;
36377;SDS011;22402;42.746;23.606;2023-05-20T00:26:47;12.67;;;8.27;;
36377;SDS011;22402;42.746;23.606;2023-05-20T00:29:12;10.17;;;8.00;;
36377;SDS011;22402;42.746;23.606;2023-05-20T00:31:38;10.53;;;7.50;;
36377;SDS011;22402;42.746;23.606;2023-05-20T00:34:03;9.87;;;7.87;;
36377;SDS011;22402;42.746;23.606;2023-05-20T00:36:28;9.93;;;6.67;;
36377;SDS011;22402;42.746;23.606;2023-05-20T00:38:55;16.00;;;7.50;;
36377;SDS011;22402;42.746;23.606;2023-05-20T00:41:20;9.83;;;7.27;;
36377;SDS011;22402;42.746;23.606;2023-05-20T00:43:46;10.90;;;8.07;;
36377;SDS011;22402;42.746;23.606;2023-05-20T00:46:11;7.90;;;6.80;;
36377;SDS011;22402;42.746;23.606;2023-05-20T00:48:41;11.27;;;7.20;;
36377;SDS011;22402;42.746;23.606;2023-05-20T00:51:07;10.10;;;6.40;;
36377;SDS011;22402;42.746;23.606;2023-05-20T00:53:34;9.57;;;8.17;;
36377;SDS011;22402;42.746;23.606;2023-05-20T00:56:01;10.97;;;8.97;;
36377;SDS011;22402;42.746;23.606;2023-05-20T00:58:27;12.77;;;7.73;;
36377;SDS011;22402;42.746;23.606;2023-05-20T01:00:53;9.57;;;7.60;;
36377;SDS011;22402;42.746;23.606;2023-05-20T01:03:19;10.80;;;7.57;;
36377;SDS011;22402;42.746;23.606;2023-05-20T01:05:45;12.47;;;8.53;;
36377;SDS011;22402;42.746;23.606;2023-05-20T01:08:10;10.23;;;7.67;;
36377;SDS011;22402;42.746;23.606;2023-05-20T01:10:37;13.33;;;9.07;;
36377;SDS011;22402;42.746;23.606;2023-05-20T01:13:06;10.10;;;8.70;;
36377;SDS011;22402;42.746;23.606;2023-05-20T01:15:35;14.37;;;9.23;;
36377;SDS011;22402;42.746;23.606;2023-05-20T01:18:04;15.93;;;10.60;;
36377;SDS011;22402;42.746;23.606;2023-05-20T01:20:34;18.93;;;10.60;;
36377;SDS011;22402;42.746;23.606;2023-05-20T01:23:01;20.40;;;10.90;;
36377;SDS011;22402;42.746;23.606;2023-05-20T01:25:27;14.33;;;10.83;;
36377;SDS011;22402;42.746;23.606;2023-05-20T01:27:53;15.47;;;11.73;;
36377;SDS011;22402;42.746;23.606;2023-05-20T01:30:21;13.93;;;11.13;;
36377;SDS011;22402;42.746;23.606;2023-05-20T01:32:57;15.97;;;11.53;;
36377;SDS011;22402;42.746;23.606;2023-05-20T01:35:28;14.93;;;10.80;;
36377;SDS011;22402;42.746;23.606;2023-05-20T01:37:54;11.50;;;9.13;;
36377;SDS011;22402;42.746;23.606;2023-05-20T01:40:21;10.73;;;7.77;;
36377;SDS011;22402;42.746;23.606;2023-05-20T01:42:47;10.57;;;8.50;;
36377;SDS011;22402;42.746;23.606;2023-05-20T01:45:17;10.50;;;8.90;;
36377;SDS011;22402;42.746;23.606;2023-05-20T01:47:46;12.33;;;10.10;;
36377;SDS011;22402;42.746;23.606;2023-05-20T01:50:11;12.70;;;11.40;;
36377;SDS011;22402;42.746;23.606;2023-05-20T01:52:37;14.13;;;11.43;;
36377;SDS011;22402;42.746;23.606;2023-05-20T01:55:02;12.43;;;10.47;;
36377;SDS011;22402;42.746;23.606;2023-05-20T01:57:28;10.37;;;9.00;;
36377;SDS011;22402;42.746;23.606;2023-05-20T01:59:53;11.30;;;9.13;;
36377;SDS011;22402;42.746;23.606;2023-05-20T02:02:19;13.63;;;8.60;;
36377;SDS011;22402;42.746;23.606;2023-05-20T02:04:45;11.00;;;7.57;;
36377;SDS011;22402;42.746;23.606;2023-05-20T02:07:17;21.93;;;9.53;;
36377;SDS011;22402;42.746;23.606;2023-05-20T02:09:45;15.20;;;9.00;;
36377;SDS011;22402;42.746;23.606;2023-05-20T02:12:11;13.57;;;8.83;;
36377;SDS011;22402;42.746;23.606;2023-05-20T02:14:43;17.73;;;9.50;;
36377;SDS011;22402;42.746;23.606;2023-05-20T02:17:12;22.13;;;11.90;;
36377;SDS011;22402;42.746;23.606;2023-05-20T02:19:41;18.43;;;11.17;;
36377;SDS011;22402;42.746;23.606;2023-05-20T02:22:07;24.57;;;11.43;;
36377;SDS011;22402;42.746;23.606;2023-05-20T02:24:32;18.20;;;10.80;;
36377;SDS011;22402;42.746;23.606;2023-05-20T02:26:57;14.37;;;9.20;;
36377;SDS011;22402;42.746;23.606;2023-05-20T02:29:23;17.87;;;10.93;;
36377;SDS011;22402;42.746;23.606;2023-05-20T02:31:49;15.40;;;10.30;;
36377;SDS011;22402;42.746;23.606;2023-05-20T02:34:16;14.37;;;10.20;;
36377;SDS011;22402;42.746;23.606;2023-05-20T02:36:41;13.67;;;8.87;;
36377;SDS011;22402;42.746;23.606;2023-05-20T02:39:07;15.17;;;9.90;;
36377;SDS011;22402;42.746;23.606;2023-05-20T02:41:32;12.97;;;9.03;;
36377;SDS011;22402;42.746;23.606;2023-05-20T02:43:58;14.27;;;11.27;;
36377;SDS011;22402;42.746;23.606;2023-05-20T02:48:55;14.97;;;10.93;;
36377;SDS011;22402;42.746;23.606;2023-05-20T02:51:22;15.40;;;10.97;;
36377;SDS011;22402;42.746;23.606;2023-05-20T02:53:47;13.70;;;10.40;;
36377;SDS011;22402;42.746;23.606;2023-05-20T02:56:13;14.50;;;11.33;;
36377;SDS011;22402;42.746;23.606;2023-05-20T02:58:38;21.80;;;13.00;;
36377;SDS011;22402;42.746;23.606;2023-05-20T03:01:04;17.53;;;12.03;;
36377;SDS011;22402;42.746;23.606;2023-05-20T03:03:29;16.30;;;12.53;;
36377;SDS011;22402;42.746;23.606;2023-05-20T03:05:55;18.70;;;13.60;;
36377;SDS011;22402;42.746;23.606;2023-05-20T03:08:21;15.27;;;12.67;;
36377;SDS011;22402;42.746;23.606;2023-05-20T03:10:47;19.20;;;14.50;;
36377;SDS011;22402;42.746;23.606;2023-05-20T03:13:12;15.43;;;12.90;;
36377;SDS011;22402;42.746;23.606;2023-05-20T03:15:39;14.67;;;13.17;;
36377;SDS011;22402;42.746;23.606;2023-05-20T03:18:06;14.20;;;10.80;;
36377;SDS011;22402;42.746;23.606;2023-05-20T03:20:35;11.47;;;9.30;;
36377;SDS011;22402;42.746;23.606;2023-05-20T03:23:04;13.40;;;10.03;;
36377;SDS011;22402;42.746;23.606;2023-05-20T03:25:29;17.47;;;10.73;;
36377;SDS011;22402;42.746;23.606;2023-05-20T03:27:55;11.87;;;9.00;;
36377;SDS011;22402;42.746;23.606;2023-05-20T03:30:22;12.33;;;9.57;;
36377;SDS011;22402;42.746;23.606;2023-05-20T03:32:48;11.77;;;9.23;;
36377;SDS011;22402;42.746;23.606;2023-05-20T03:35:13;12.50;;;10.83;;
36377;SDS011;22402;42.746;23.606;2023-05-20T03:37:39;12.17;;;10.20;;
36377;SDS011;22402;42.746;23.606;2023-05-20T03:40:05;14.60;;;10.63;;
36377;SDS011;22402;42.746;23.606;2023-05-20T03:42:32;18.93;;;12.27;;
36377;SDS011;22402;42.746;23.606;2023-05-20T03:44:58;18.90;;;12.47;;
36377;SDS011;22402;42.746;23.606;2023-05-20T03:47:24;21.37;;;15.70;;
36377;SDS011;22402;42.746;23.606;2023-05-20T03:49:50;25.40;;;16.47;;
36377;SDS011;22402;42.746;23.606;2023-05-20T03:52:15;25.53;;;16.20;;
36377;SDS011;22402;42.746;23.606;2023-05-20T03:54:41;22.00;;;14.57;;
36377;SDS011;22402;42.746;23.606;2023-05-20T03:57:06;20.60;;;14.00;;
36377;SDS011;22402;42.746;23.606;2023-05-20T03:59:32;21.43;;;12.07;;
36377;SDS011;22402;42.746;23.606;2023-05-20T04:01:57;21.07;;;13.67;;
36377;SDS011;22402;42.746;23.606;2023-05-20T04:04:23;16.30;;;11.33;;
36377;SDS011;22402;42.746;23.606;2023-05-20T04:06:48;14.07;;;11.20;;
36377;SDS011;22402;42.746;23.606;2023-05-20T04:09:14;14.00;;;10.93;;
36377;SDS011;22402;42.746;23.606;2023-05-20T04:11:39;16.13;;;10.30;;
36377;SDS011;22402;42.746;23.606;2023-05-20T04:14:05;17.97;;;13.13;;
36377;SDS011;22402;42.746;23.606;2023-05-20T04:16:30;20.47;;;16.13;;
36377;SDS011;22402;42.746;23.606;2023-05-20T04:18:56;24.77;;;18.77;;
36377;SDS011;22402;42.746;23.606;2023-05-20T04:21:23;18.70;;;15.17;;
36377;SDS011;22402;42.746;23.606;2023-05-20T04:23:48;16.70;;;13.77;;
36377;SDS011;22402;42.746;23.606;2023-05-20T04:26:14;14.80;;;11.87;;
36377;SDS011;22402;42.746;23.606;2023-05-20T04:28:39;16.17;;;12.67;;
36377;SDS011;22402;42.746;23.606;2023-05-20T04:31:06;17.73;;;12.17;;
36377;SDS011;22402;42.746;23.606;2023-05-20T04:33:32;12.27;;;10.70;;
36377;SDS011;22402;42.746;23.606;2023-05-20T04:36:01;13.70;;;11.70;;
36377;SDS011;22402;42.746;23.606;2023-05-20T04:41:24;13.97;;;11.30;;
36377;SDS011;22402;42.746;23.606;2023-05-20T04:43:51;15.87;;;12.73;;
36377;SDS011;22402;42.746;23.606;2023-05-20T04:46:17;18.00;;;13.17;;
36377;SDS011;22402;42.746;23.606;2023-05-20T04:48:44;14.67;;;11.20;;
36377;SDS011;22402;42.746;23.606;2023-05-20T04:51:12;12.67;;;11.37;;
36377;SDS011;22402;42.746;23.606;2023-05-20T04:53:37;12.83;;;10.40;;
36377;SDS011;22402;42.746;23.606;2023-05-20T04:56:04;13.60;;;10.90;;
36377;SDS011;22402;42.746;23.606;2023-05-20T04:58:29;16.07;;;11.60;;
36377;SDS011;22402;42.746;23.606;2023-05-20T05:00:55;13.03;;;10.73;;
36377;SDS011;22402;42.746;23.606;2023-05-20T05:03:21;15.63;;;11.33;;
36377;SDS011;22402;42.746;23.606;2023-05-20T05:05:46;13.07;;;11.23;;
36377;SDS011;22402;42.746;23.606;2023-05-20T05:08:12;15.27;;;11.43;;
36377;SDS011;22402;42.746;23.606;2023-05-20T05:10:37;13.47;;;10.80;;
36377;SDS011;22402;42.746;23.606;2023-05-20T05:13:03;17.80;;;11.57;;
36377;SDS011;22402;42.746;23.606;2023-05-20T05:15:28;14.40;;;10.33;;
36377;SDS011;22402;42.746;23.606;2023-05-20T05:17:54;13.40;;;11.07;;
36377;SDS011;22402;42.746;23.606;2023-05-20T05:20:19;13.17;;;10.97;;
36377;SDS011;22402;42.746;23.606;2023-05-20T05:22:45;13.33;;;11.87;;
36377;SDS011;22402;42.746;23.606;2023-05-20T05:25:11;13.23;;;11.10;;
36377;SDS011;22402;42.746;23.606;2023-05-20T05:27:37;14.37;;;11.03;;
36377;SDS011;22402;42.746;23.606;2023-05-20T05:30:03;12.53;;;9.47;;
36377;SDS011;22402;42.746;23.606;2023-05-20T05:32:30;11.90;;;8.73;;
36377;SDS011;22402;42.746;23.606;2023-05-20T05:34:56;12.27;;;10.23;;
36377;SDS011;22402;42.746;23.606;2023-05-20T05:37:21;13.90;;;10.20;;
36377;SDS011;22402;42.746;23.606;2023-05-20T05:39:47;12.07;;;9.50;;
36377;SDS011;22402;42.746;23.606;2023-05-20T05:42:12;10.70;;;8.73;;
36377;SDS011;22402;42.746;23.606;2023-05-20T05:44:38;13.37;;;8.23;;
36377;SDS011;22402;42.746;23.606;2023-05-20T05:47:03;15.90;;;9.03;;
36377;SDS011;22402;42.746;23.606;2023-05-20T05:49:30;14.20;;;8.93;;
36377;SDS011;22402;42.746;23.606;2023-05-20T05:51:56;12.13;;;8.13;;
36377;SDS011;22402;42.746;23.606;2023-05-20T05:54:21;10.77;;;7.87;;
36377;SDS011;22402;42.746;23.606;2023-05-20T05:56:47;7.70;;;6.40;;
36377;SDS011;22402;42.746;23.606;2023-05-20T05:59:12;12.43;;;7.63;;
36377;SDS011;22402;42.746;23.606;2023-05-20T06:01:39;10.60;;;8.43;;
36377;SDS011;22402;42.746;23.606;2023-05-20T06:04:05;35.87;;;16.33;;
36377;SDS011;22402;42.746;23.606;2023-05-20T06:06:30;28.30;;;15.77;;
36377;SDS011;22402;42.746;23.606;2023-05-20T06:08:56;20.43;;;11.53;;
36377;SDS011;22402;42.746;23.606;2023-05-20T06:11:24;12.33;;;8.70;;
36377;SDS011;22402;42.746;23.606;2023-05-20T06:13:50;14.00;;;8.17;;
36377;SDS011;22402;42.746;23.606;2023-05-20T06:16:16;11.13;;;7.00;;
36377;SDS011;22402;42.746;23.606;2023-05-20T06:18:42;8.60;;;6.10;;
36377;SDS011;22402;42.746;23.606;2023-05-20T06:21:07;9.20;;;6.20;;
36377;SDS011;22402;42.746;23.606;2023-05-20T06:23:36;10.73;;;5.97;;
36377;SDS011;22402;42.746;23.606;2023-05-20T06:26:01;7.27;;;5.80;;
36377;SDS011;22402;42.746;23.606;2023-05-20T06:28:27;10.47;;;6.30;;
36377;SDS011;22402;42.746;23.606;2023-05-20T06:30:53;9.67;;;5.70;;
36377;SDS011;22402;42.746;23.606;2023-05-20T06:33:20;7.30;;;5.60;;
36377;SDS011;22402;42.746;23.606;2023-05-20T06:35:49;9.97;;;6.77;;
36377;SDS011;22402;42.746;23.606;2023-05-20T06:38:15;7.67;;;5.50;;
36377;SDS011;22402;42.746;23.606;2023-05-20T06:40:41;7.10;;;5.87;;
36377;SDS011;22402;42.746;23.606;2023-05-20T06:43:06;7.40;;;5.47;;
36377;SDS011;22402;42.746;23.606;2023-05-20T06:45:32;6.50;;;5.80;;
36377;SDS011;22402;42.746;23.606;2023-05-20T06:47:57;6.80;;;5.20;;
36377;SDS011;22402;42.746;23.606;2023-05-20T06:50:22;13.13;;;6.17;;
36377;SDS011;22402;42.746;23.606;2023-05-20T06:52:48;7.63;;;5.10;;
36377;SDS011;22402;42.746;23.606;2023-05-20T06:55:14;10.10;;;6.30;;
36377;SDS011;22402;42.746;23.606;2023-05-20T06:57:40;7.87;;;5.37;;
36377;SDS011;22402;42.746;23.606;2023-05-20T07:00:06;7.87;;;6.33;;
36377;SDS011;22402;42.746;23.606;2023-05-20T07:02:32;7.40;;;5.57;;
36377;SDS011;22402;42.746;23.606;2023-05-20T07:04:58;9.00;;;7.07;;
36377;SDS011;22402;42.746;23.606;2023-05-20T07:07:23;9.33;;;6.57;;
36377;SDS011;22402;42.746;23.606;2023-05-20T07:09:49;7.50;;;5.60;;
36377;SDS011;22402;42.746;23.606;2023-05-20T07:12:14;8.60;;;6.30;;
36377;SDS011;22402;42.746;23.606;2023-05-20T07:14:40;9.80;;;6.47;;
36377;SDS011;22402;42.746;23.606;2023-05-20T07:17:06;8.60;;;5.77;;
36377;SDS011;22402;42.746;23.606;2023-05-20T07:19:32;8.10;;;5.30;;
36377;SDS011;22402;42.746;23.606;2023-05-20T07:21:58;8.13;;;6.20;;
36377;SDS011;22402;42.746;23.606;2023-05-20T07:24:24;8.80;;;6.97;;
36377;SDS011;22402;42.746;23.606;2023-05-20T07:26:50;9.17;;;6.10;;
36377;SDS011;22402;42.746;23.606;2023-05-20T07:29:15;8.43;;;6.10;;
36377;SDS011;22402;42.746;23.606;2023-05-20T07:31:41;7.63;;;6.20;;
36377;SDS011;22402;42.746;23.606;2023-05-20T07:34:06;8.40;;;5.83;;
36377;SDS011;22402;42.746;23.606;2023-05-20T07:36:32;8.97;;;5.80;;
36377;SDS011;22402;42.746;23.606;2023-05-20T07:38:57;10.97;;;5.90;;
36377;SDS011;22402;42.746;23.606;2023-05-20T07:41:23;7.70;;;5.27;;
36377;SDS011;22402;42.746;23.606;2023-05-20T07:43:48;8.43;;;6.10;;
36377;SDS011;22402;42.746;23.606;2023-05-20T07:46:14;8.07;;;5.50;;
36377;SDS011;22402;42.746;23.606;2023-05-20T07:48:40;10.70;;;6.40;;
36377;SDS011;22402;42.746;23.606;2023-05-20T07:51:06;7.17;;;5.80;;
36377;SDS011;22402;42.746;23.606;2023-05-20T07:53:31;7.10;;;5.87;;
36377;SDS011;22402;42.746;23.606;2023-05-20T07:55:57;6.60;;;5.07;;
36377;SDS011;22402;42.746;23.606;2023-05-20T07:58:23;6.90;;;5.43;;
36377;SDS011;22402;42.746;23.606;2023-05-20T08:00:48;6.40;;;4.97;;
36377;SDS011;22402;42.746;23.606;2023-05-20T08:05:42;10.15;;;5.75;;
36377;SDS011;22402;42.746;23.606;2023-05-20T08:08:07;6.20;;;5.07;;
36377;SDS011;22402;42.746;23.606;2023-05-20T08:10:34;6.33;;;5.30;;
36377;SDS011;22402;42.746;23.606;2023-05-20T08:13:00;6.73;;;4.83;;
36377;SDS011;22402;42.746;23.606;2023-05-20T08:15:26;5.97;;;5.30;;
36377;SDS011;22402;42.746;23.606;2023-05-20T08:17:51;5.83;;;4.80;;
36377;SDS011;22402;42.746;23.606;2023-05-20T08:20:17;6.73;;;4.70;;
36377;SDS011;22402;42.746;23.606;2023-05-20T08:22:42;6.23;;;4.07;;
36377;SDS011;22402;42.746;23.606;2023-05-20T08:25:08;5.10;;;4.27;;
36377;SDS011;22402;42.746;23.606;2023-05-20T08:27:35;6.40;;;5.23;;
36377;SDS011;22402;42.746;23.606;2023-05-20T08:30:01;5.00;;;4.33;;
36377;SDS011;22402;42.746;23.606;2023-05-20T08:32:27;6.23;;;5.13;;
36377;SDS011;22402;42.746;23.606;2023-05-20T08:34:53;5.97;;;4.73;;
36377;SDS011;22402;42.746;23.606;2023-05-20T08:37:18;5.87;;;4.60;;
36377;SDS011;22402;42.746;23.606;2023-05-20T08:39:44;6.03;;;4.33;;
36377;SDS011;22402;42.746;23.606;2023-05-20T08:42:12;8.27;;;3.90;;
36377;SDS011;22402;42.746;23.606;2023-05-20T08:44:37;10.50;;;5.60;;
36377;SDS011;22402;42.746;23.606;2023-05-20T08:47:05;6.43;;;5.77;;
36377;SDS011;22402;42.746;23.606;2023-05-20T08:49:31;9.50;;;4.90;;
36377;SDS011;22402;42.746;23.606;2023-05-20T08:51:58;6.90;;;5.40;;
36377;SDS011;22402;42.746;23.606;2023-05-20T08:54:24;8.13;;;5.43;;
36377;SDS011;22402;42.746;23.606;2023-05-20T08:56:57;7.53;;;6.07;;
36377;SDS011;22402;42.746;23.606;2023-05-20T08:59:24;8.40;;;5.40;;
36377;SDS011;22402;42.746;23.606;2023-05-20T09:01:50;5.20;;;4.20;;
36377;SDS011;22402;42.746;23.606;2023-05-20T09:04:15;7.63;;;4.33;;
36377;SDS011;22402;42.746;23.606;2023-05-20T09:06:44;6.83;;;5.43;;
36377;SDS011;22402;42.746;23.606;2023-05-20T09:09:14;8.33;;;5.43;;
36377;SDS011;22402;42.746;23.606;2023-05-20T09:11:40;5.50;;;4.70;;
36377;SDS011;22402;42.746;23.606;2023-05-20T09:14:06;7.97;;;5.50;;
36377;SDS011;22402;42.746;23.606;2023-05-20T09:16:32;6.97;;;4.43;;
36377;SDS011;22402;42.746;23.606;2023-05-20T09:18:57;9.20;;;7.47;;
36377;SDS011;22402;42.746;23.606;2023-05-20T09:21:29;11.20;;;7.83;;
36377;SDS011;22402;42.746;23.606;2023-05-20T09:23:55;12.03;;;7.07;;
36377;SDS011;22402;42.746;23.606;2023-05-20T09:26:27;9.20;;;5.70;;
36377;SDS011;22402;42.746;23.606;2023-05-20T09:28:57;5.60;;;4.50;;
36377;SDS011;22402;42.746;23.606;2023-05-20T09:31:27;6.60;;;4.30;;
36377;SDS011;22402;42.746;23.606;2023-05-20T09:33:54;8.20;;;4.50;;
36377;SDS011;22402;42.746;23.606;2023-05-20T09:36:21;8.00;;;4.80;;
36377;SDS011;22402;42.746;23.606;2023-05-20T09:38:49;6.97;;;5.50;;
36377;SDS011;22402;42.746;23.606;2023-05-20T09:41:21;6.70;;;4.70;;
36377;SDS011;22402;42.746;23.606;2023-05-20T09:43:51;6.20;;;4.90;;
36377;SDS011;22402;42.746;23.606;2023-05-20T09:46:17;5.87;;;4.20;;
36377;SDS011;22402;42.746;23.606;2023-05-20T09:48:44;4.87;;;3.63;;
36377;SDS011;22402;42.746;23.606;2023-05-20T09:51:10;4.57;;;3.90;;
36377;SDS011;22402;42.746;23.606;2023-05-20T09:53:37;5.07;;;4.10;;
36377;SDS011;22402;42.746;23.606;2023-05-20T09:56:02;9.50;;;4.47;;
36377;SDS011;22402;42.746;23.606;2023-05-20T09:58:28;6.60;;;5.37;;
36377;SDS011;22402;42.746;23.606;2023-05-20T10:00:54;10.50;;;6.23;;
36377;SDS011;22402;42.746;23.606;2023-05-20T10:03:22;14.73;;;7.83;;
36377;SDS011;22402;42.746;23.606;2023-05-20T10:11:21;13.60;;;4.47;;
36377;SDS011;22402;42.746;23.606;2023-05-20T10:19:27;4.73;;;3.87;;
36377;SDS011;22402;42.746;23.606;2023-05-20T10:22:04;6.60;;;4.27;;
36377;SDS011;22402;42.746;23.606;2023-05-20T10:24:36;4.10;;;3.63;;
36377;SDS011;22402;42.746;23.606;2023-05-20T10:27:08;7.03;;;4.13;;
36377;SDS011;22402;42.746;23.606;2023-05-20T10:29:42;5.60;;;4.37;;
36377;SDS011;22402;42.746;23.606;2023-05-20T10:32:08;8.37;;;3.23;;
36377;SDS011;22402;42.746;23.606;2023-05-20T10:34:43;28.00;;;11.37;;
36377;SDS011;22402;42.746;23.606;2023-05-20T10:37:19;12.37;;;5.03;;
36377;SDS011;22402;42.746;23.606;2023-05-20T10:39:48;7.37;;;3.90;;
36377;SDS011;22402;42.746;23.606;2023-05-20T10:42:14;9.80;;;6.00;;
36377;SDS011;22402;42.746;23.606;2023-05-20T10:44:42;7.10;;;4.70;;
36377;SDS011;22402;42.746;23.606;2023-05-20T10:47:09;6.40;;;4.10;;
36377;SDS011;22402;42.746;23.606;2023-05-20T10:49:38;6.20;;;3.77;;
36377;SDS011;22402;42.746;23.606;2023-05-20T10:52:07;8.33;;;4.00;;
36377;SDS011;22402;42.746;23.606;2023-05-20T10:54:34;4.87;;;3.27;;
36377;SDS011;22402;42.746;23.606;2023-05-20T10:57:04;6.13;;;3.57;;
36377;SDS011;22402;42.746;23.606;2023-05-20T10:59:31;10.43;;;4.00;;
36377;SDS011;22402;42.746;23.606;2023-05-20T11:01:58;8.03;;;4.30;;
36377;SDS011;22402;42.746;23.606;2023-05-20T11:04:27;6.20;;;4.03;;
36377;SDS011;22402;42.746;23.606;2023-05-20T11:06:54;17.63;;;4.63;;
36377;SDS011;22402;42.746;23.606;2023-05-20T11:09:21;4.00;;;3.40;;
36377;SDS011;22402;42.746;23.606;2023-05-20T11:11:46;10.63;;;5.27;;
36377;SDS011;22402;42.746;23.606;2023-05-20T11:14:13;5.50;;;4.70;;
36377;SDS011;22402;42.746;23.606;2023-05-20T11:16:40;8.77;;;4.00;;
36377;SDS011;22402;42.746;23.606;2023-05-20T11:19:06;6.67;;;4.43;;
36377;SDS011;22402;42.746;23.606;2023-05-20T11:21:32;5.00;;;3.80;;
36377;SDS011;22402;42.746;23.606;2023-05-20T11:23:58;3.63;;;3.30;;
36377;SDS011;22402;42.746;23.606;2023-05-20T11:26:24;6.33;;;4.30;;
36377;SDS011;22402;42.746;23.606;2023-05-20T11:28:49;7.43;;;3.80;;
36377;SDS011;22402;42.746;23.606;2023-05-20T11:31:16;4.27;;;3.63;;
36377;SDS011;22402;42.746;23.606;2023-05-20T11:33:42;4.60;;;3.13;;
36377;SDS011;22402;42.746;23.606;2023-05-20T11:36:08;4.33;;;3.50;;
36377;SDS011;22402;42.746;23.606;2023-05-20T11:38:35;6.07;;;3.87;;
36377;SDS011;22402;42.746;23.606;2023-05-20T11:41:00;5.93;;;3.63;;
36377;SDS011;22402;42.746;23.606;2023-05-20T11:43:26;4.40;;;4.00;;
36377;SDS011;22402;42.746;23.606;2023-05-20T11:45:55;4.80;;;3.90;;
36377;SDS011;22402;42.746;23.606;2023-05-20T11:48:24;7.30;;;4.40;;
36377;SDS011;22402;42.746;23.606;2023-05-20T11:50:50;7.23;;;4.10;;
36377;SDS011;22402;42.746;23.606;2023-05-20T11:53:18;5.13;;;4.20;;
36377;SDS011;22402;42.746;23.606;2023-05-20T11:55:49;8.07;;;4.27;;
36377;SDS011;22402;42.746;23.606;2023-05-20T11:58:19;6.70;;;4.50;;
36377;SDS011;22402;42.746;23.606;2023-05-20T12:00:46;3.77;;;3.37;;
36377;SDS011;22402;42.746;23.606;2023-05-20T12:03:12;6.17;;;3.60;;
36377;SDS011;22402;42.746;23.606;2023-05-20T12:05:38;6.20;;;4.30;;
36377;SDS011;22402;42.746;23.606;2023-05-20T12:08:04;6.90;;;4.00;;
36377;SDS011;22402;42.746;23.606;2023-05-20T12:10:30;7.03;;;3.43;;
36377;SDS011;22402;42.746;23.606;2023-05-20T12:12:55;10.17;;;3.50;;
36377;SDS011;22402;42.746;23.606;2023-05-20T12:15:21;4.17;;;2.63;;
36377;SDS011;22402;42.746;23.606;2023-05-20T12:17:47;3.73;;;2.10;;
36377;SDS011;22402;42.746;23.606;2023-05-20T12:20:14;3.67;;;2.20;;
36377;SDS011;22402;42.746;23.606;2023-05-20T12:22:44;6.17;;;2.70;;
36377;SDS011;22402;42.746;23.606;2023-05-20T12:25:11;3.50;;;2.80;;
36377;SDS011;22402;42.746;23.606;2023-05-20T12:27:38;5.40;;;3.20;;
36377;SDS011;22402;42.746;23.606;2023-05-20T12:30:05;4.27;;;3.87;;
36377;SDS011;22402;42.746;23.606;2023-05-20T12:32:31;3.87;;;3.47;;
36377;SDS011;22402;42.746;23.606;2023-05-20T12:34:57;4.37;;;3.83;;
36377;SDS011;22402;42.746;23.606;2023-05-20T12:37:22;7.23;;;4.63;;
36377;SDS011;22402;42.746;23.606;2023-05-20T12:39:48;5.10;;;4.60;;
36377;SDS011;22402;42.746;23.606;2023-05-20T12:42:13;11.03;;;6.13;;
36377;SDS011;22402;42.746;23.606;2023-05-20T12:44:38;7.07;;;5.60;;
36377;SDS011;22402;42.746;23.606;2023-05-20T12:47:07;10.37;;;5.87;;
36377;SDS011;22402;42.746;23.606;2023-05-20T12:49:33;5.63;;;4.97;;
36377;SDS011;22402;42.746;23.606;2023-05-20T12:51:58;11.30;;;5.80;;
36377;SDS011;22402;42.746;23.606;2023-05-20T12:54:24;7.77;;;6.27;;
36377;SDS011;22402;42.746;23.606;2023-05-20T12:56:52;7.50;;;6.33;;
36377;SDS011;22402;42.746;23.606;2023-05-20T12:59:20;8.57;;;6.03;;
36377;SDS011;22402;42.746;23.606;2023-05-20T13:01:45;6.97;;;5.10;;
36377;SDS011;22402;42.746;23.606;2023-05-20T13:04:12;5.83;;;4.77;;
36377;SDS011;22402;42.746;23.606;2023-05-20T13:06:37;4.90;;;4.33;;
36377;SDS011;22402;42.746;23.606;2023-05-20T13:09:02;4.93;;;4.27;;
36377;SDS011;22402;42.746;23.606;2023-05-20T13:11:28;11.20;;;4.80;;
36377;SDS011;22402;42.746;23.606;2023-05-20T13:13:53;5.07;;;4.20;;
36377;SDS011;22402;42.746;23.606;2023-05-20T13:16:20;5.57;;;3.80;;
36377;SDS011;22402;42.746;23.606;2023-05-20T13:18:46;5.50;;;4.03;;
36377;SDS011;22402;42.746;23.606;2023-05-20T13:21:11;4.03;;;3.40;;
36377;SDS011;22402;42.746;23.606;2023-05-20T13:23:37;5.80;;;3.40;;
36377;SDS011;22402;42.746;23.606;2023-05-20T13:26:03;6.33;;;3.90;;
36377;SDS011;22402;42.746;23.606;2023-05-20T13:28:29;6.33;;;3.50;;
36377;SDS011;22402;42.746;23.606;2023-05-20T13:30:55;3.33;;;2.90;;
36377;SDS011;22402;42.746;23.606;2023-05-20T13:33:20;3.87;;;3.40;;
36377;SDS011;22402;42.746;23.606;2023-05-20T13:35:57;3.40;;;3.10;;
36377;SDS011;22402;42.746;23.606;2023-05-20T13:38:22;4.47;;;3.53;;
36377;SDS011;22402;42.746;23.606;2023-05-20T13:40:51;4.90;;;3.40;;
36377;SDS011;22402;42.746;23.606;2023-05-20T13:43:17;5.67;;;4.43;;
36377;SDS011;22402;42.746;23.606;2023-05-20T13:45:42;5.47;;;3.50;;
36377;SDS011;22402;42.746;23.606;2023-05-20T13:48:08;6.40;;;3.20;;
36377;SDS011;22402;42.746;23.606;2023-05-20T13:50:33;6.70;;;3.63;;
36377;SDS011;22402;42.746;23.606;2023-05-20T13:52:59;4.40;;;3.33;;
36377;SDS011;22402;42.746;23.606;2023-05-20T13:55:24;5.80;;;2.93;;
36377;SDS011;22402;42.746;23.606;2023-05-20T13:57:50;6.47;;;3.77;;
36377;SDS011;22402;42.746;23.606;2023-05-20T14:00:18;5.53;;;3.47;;
36377;SDS011;22402;42.746;23.606;2023-05-20T14:02:44;4.70;;;4.00;;
36377;SDS011;22402;42.746;23.606;2023-05-20T14:05:09;5.10;;;3.90;;
36377;SDS011;22402;42.746;23.606;2023-05-20T14:07:35;6.43;;;4.47;;
36377;SDS011;22402;42.746;23.606;2023-05-20T14:10:01;6.80;;;5.50;;
36377;SDS011;22402;42.746;23.606;2023-05-20T14:12:27;10.50;;;5.53;;
36377;SDS011;22402;42.746;23.606;2023-05-20T14:14:52;7.60;;;5.13;;
36377;SDS011;22402;42.746;23.606;2023-05-20T14:17:18;6.40;;;5.10;;
36377;SDS011;22402;42.746;23.606;2023-05-20T14:19:43;6.70;;;5.13;;
36377;SDS011;22402;42.746;23.606;2023-05-20T14:22:09;7.00;;;6.00;;
36377;SDS011;22402;42.746;23.606;2023-05-20T14:24:37;6.77;;;5.67;;
36377;SDS011;22402;42.746;23.606;2023-05-20T14:27:03;7.90;;;5.60;;
36377;SDS011;22402;42.746;23.606;2023-05-20T14:29:29;6.20;;;5.10;;
36377;SDS011;22402;42.746;23.606;2023-05-20T14:31:54;6.97;;;5.90;;
36377;SDS011;22402;42.746;23.606;2023-05-20T14:34:19;9.70;;;6.57;;
36377;SDS011;22402;42.746;23.606;2023-05-20T14:36:45;7.63;;;6.50;;
36377;SDS011;22402;42.746;23.606;2023-05-20T14:39:11;8.80;;;6.77;;